sensor_id;sensor_type;location;lat;lon;timestamp;P1;durP1;ratioP1;P2;durP2;ratioP2
41466;SDS011;27205;53.690;19.948;2023-05-28T00:00:45;3.70;;;2.70;;
41466;SDS011;27205;53.690;19.948;2023-05-28T00:06:09;2.80;;;2.00;;
41466;SDS011;27205;53.690;19.948;2023-05-28T00:11:13;2.70;;;2.10;;
41466;SDS011;27205;53.690;19.948;2023-05-28T00:16:17;2.80;;;2.30;;
41466;SDS011;27205;53.690;19.948;2023-05-28T00:21:20;3.60;;;3.10;;
41466;SDS011;27205;53.690;19.948;2023-05-28T00:26:24;4.80;;;2.70;;
41466;SDS011;27205;53.690;19.948;2023-05-28T00:31:28;4.10;;;3.00;;
41466;SDS011;27205;53.690;19.948;2023-05-28T00:36:32;4.30;;;3.00;;
41466;SDS011;27205;53.690;19.948;2023-05-28T00:41:36;4.40;;;3.30;;
41466;SDS011;27205;53.690;19.948;2023-05-28T00:46:40;4.40;;;3.60;;
41466;SDS011;27205;53.690;19.948;2023-05-28T00:51:47;5.00;;;3.80;;
41466;SDS011;27205;53.690;19.948;2023-05-28T01:01:56;3.60;;;3.00;;
41466;SDS011;27205;53.690;19.948;2023-05-28T01:07:00;4.40;;;2.30;;
41466;SDS011;27205;53.690;19.948;2023-05-28T01:12:04;2.30;;;2.10;;
41466;SDS011;27205;53.690;19.948;2023-05-28T01:17:10;2.70;;;2.50;;
41466;SDS011;27205;53.690;19.948;2023-05-28T01:22:16;3.20;;;2.40;;
41466;SDS011;27205;53.690;19.948;2023-05-28T01:27:23;3.00;;;2.60;;
41466;SDS011;27205;53.690;19.948;2023-05-28T01:32:27;5.70;;;3.30;;
41466;SDS011;27205;53.690;19.948;2023-05-28T01:37:31;2.60;;;2.40;;
41466;SDS011;27205;53.690;19.948;2023-05-28T01:42:38;3.00;;;2.70;;
41466;SDS011;27205;53.690;19.948;2023-05-28T01:47:42;3.50;;;2.90;;
41466;SDS011;27205;53.690;19.948;2023-05-28T01:57:50;3.20;;;2.50;;
41466;SDS011;27205;53.690;19.948;2023-05-28T02:02:53;4.80;;;3.20;;
41466;SDS011;27205;53.690;19.948;2023-05-28T02:07:57;2.30;;;2.10;;
41466;SDS011;27205;53.690;19.948;2023-05-28T02:13:01;3.60;;;2.90;;
41466;SDS011;27205;53.690;19.948;2023-05-28T02:18:06;3.20;;;2.70;;
41466;SDS011;27205;53.690;19.948;2023-05-28T02:23:13;2.90;;;2.70;;
41466;SDS011;27205;53.690;19.948;2023-05-28T02:28:17;3.20;;;2.90;;
41466;SDS011;27205;53.690;19.948;2023-05-28T02:33:20;4.20;;;3.40;;
41466;SDS011;27205;53.690;19.948;2023-05-28T02:43:28;4.50;;;3.20;;
41466;SDS011;27205;53.690;19.948;2023-05-28T02:48:32;3.80;;;3.00;;
41466;SDS011;27205;53.690;19.948;2023-05-28T02:53:35;5.20;;;2.80;;
41466;SDS011;27205;53.690;19.948;2023-05-28T02:58:39;2.70;;;2.50;;
41466;SDS011;27205;53.690;19.948;2023-05-28T03:03:43;6.60;;;3.30;;
41466;SDS011;27205;53.690;19.948;2023-05-28T03:08:46;4.00;;;2.90;;
41466;SDS011;27205;53.690;19.948;2023-05-28T03:13:50;3.40;;;2.80;;
41466;SDS011;27205;53.690;19.948;2023-05-28T03:18:54;4.50;;;2.80;;
41466;SDS011;27205;53.690;19.948;2023-05-28T03:23:57;3.20;;;2.50;;
41466;SDS011;27205;53.690;19.948;2023-05-28T03:29:01;3.10;;;2.60;;
41466;SDS011;27205;53.690;19.948;2023-05-28T03:34:04;3.10;;;2.20;;
41466;SDS011;27205;53.690;19.948;2023-05-28T03:39:08;2.80;;;2.60;;
41466;SDS011;27205;53.690;19.948;2023-05-28T03:49:16;2.60;;;1.90;;
41466;SDS011;27205;53.690;19.948;2023-05-28T03:54:19;2.90;;;2.30;;
41466;SDS011;27205;53.690;19.948;2023-05-28T03:59:23;3.80;;;2.80;;
41466;SDS011;27205;53.690;19.948;2023-05-28T04:04:27;2.90;;;1.80;;
41466;SDS011;27205;53.690;19.948;2023-05-28T04:09:31;2.40;;;2.20;;
41466;SDS011;27205;53.690;19.948;2023-05-28T04:14:34;2.40;;;2.20;;
41466;SDS011;27205;53.690;19.948;2023-05-28T04:19:38;9.40;;;5.80;;
41466;SDS011;27205;53.690;19.948;2023-05-28T04:24:42;4.00;;;3.60;;
41466;SDS011;27205;53.690;19.948;2023-05-28T04:29:46;5.20;;;4.00;;
41466;SDS011;27205;53.690;19.948;2023-05-28T04:34:50;4.50;;;4.00;;
41466;SDS011;27205;53.690;19.948;2023-05-28T04:39:56;4.00;;;3.40;;
41466;SDS011;27205;53.690;19.948;2023-05-28T04:45:00;3.50;;;3.10;;
41466;SDS011;27205;53.690;19.948;2023-05-28T04:50:04;3.60;;;2.40;;
41466;SDS011;27205;53.690;19.948;2023-05-28T04:55:09;3.40;;;2.30;;
41466;SDS011;27205;53.690;19.948;2023-05-28T05:00:13;2.80;;;2.40;;
41466;SDS011;27205;53.690;19.948;2023-05-28T05:10:20;3.00;;;2.00;;
41466;SDS011;27205;53.690;19.948;2023-05-28T05:15:24;4.50;;;1.90;;
41466;SDS011;27205;53.690;19.948;2023-05-28T05:20:28;2.40;;;1.90;;
41466;SDS011;27205;53.690;19.948;2023-05-28T05:25:33;3.10;;;1.70;;
41466;SDS011;27205;53.690;19.948;2023-05-28T05:30:36;3.20;;;1.70;;
41466;SDS011;27205;53.690;19.948;2023-05-28T05:40:44;2.10;;;1.40;;
41466;SDS011;27205;53.690;19.948;2023-05-28T05:45:47;2.90;;;1.50;;
41466;SDS011;27205;53.690;19.948;2023-05-28T05:50:51;1.40;;;1.30;;
41466;SDS011;27205;53.690;19.948;2023-05-28T05:55:58;2.80;;;1.30;;
41466;SDS011;27205;53.690;19.948;2023-05-28T06:01:02;2.60;;;1.10;;
41466;SDS011;27205;53.690;19.948;2023-05-28T06:06:06;1.20;;;1.00;;
41466;SDS011;27205;53.690;19.948;2023-05-28T06:11:09;2.00;;;1.40;;
41466;SDS011;27205;53.690;19.948;2023-05-28T06:16:13;1.30;;;1.20;;
41466;SDS011;27205;53.690;19.948;2023-05-28T06:21:16;2.50;;;1.20;;
41466;SDS011;27205;53.690;19.948;2023-05-28T06:26:21;2.40;;;1.10;;
41466;SDS011;27205;53.690;19.948;2023-05-28T06:31:25;2.40;;;1.10;;
41466;SDS011;27205;53.690;19.948;2023-05-28T06:36:29;1.10;;;1.00;;
41466;SDS011;27205;53.690;19.948;2023-05-28T06:41:32;1.40;;;0.90;;
41466;SDS011;27205;53.690;19.948;2023-05-28T06:46:36;1.90;;;1.00;;
41466;SDS011;27205;53.690;19.948;2023-05-28T06:51:39;5.00;;;1.30;;
41466;SDS011;27205;53.690;19.948;2023-05-28T06:56:43;4.40;;;1.00;;
41466;SDS011;27205;53.690;19.948;2023-05-28T07:01:47;4.80;;;1.00;;
41466;SDS011;27205;53.690;19.948;2023-05-28T07:06:51;5.40;;;1.10;;
41466;SDS011;27205;53.690;19.948;2023-05-28T07:11:56;1.70;;;1.00;;
41466;SDS011;27205;53.690;19.948;2023-05-28T07:17:00;2.20;;;1.00;;
41466;SDS011;27205;53.690;19.948;2023-05-28T07:22:03;2.30;;;0.90;;
41466;SDS011;27205;53.690;19.948;2023-05-28T07:32:11;1.30;;;1.20;;
41466;SDS011;27205;53.690;19.948;2023-05-28T07:37:14;2.40;;;0.80;;
41466;SDS011;27205;53.690;19.948;2023-05-28T07:42:18;7.40;;;1.40;;
41466;SDS011;27205;53.690;19.948;2023-05-28T07:47:22;1.70;;;1.10;;
41466;SDS011;27205;53.690;19.948;2023-05-28T07:52:26;3.70;;;1.00;;
41466;SDS011;27205;53.690;19.948;2023-05-28T07:57:32;2.20;;;0.90;;
41466;SDS011;27205;53.690;19.948;2023-05-28T08:07:39;1.40;;;0.80;;
41466;SDS011;27205;53.690;19.948;2023-05-28T08:12:43;2.00;;;0.80;;
41466;SDS011;27205;53.690;19.948;2023-05-28T08:17:47;1.70;;;1.00;;
41466;SDS011;27205;53.690;19.948;2023-05-28T08:27:54;1.90;;;1.00;;
41466;SDS011;27205;53.690;19.948;2023-05-28T08:32:57;2.50;;;1.00;;
41466;SDS011;27205;53.690;19.948;2023-05-28T08:38:01;1.60;;;1.10;;
41466;SDS011;27205;53.690;19.948;2023-05-28T08:43:04;0.80;;;0.70;;
41466;SDS011;27205;53.690;19.948;2023-05-28T08:48:08;1.80;;;0.90;;
41466;SDS011;27205;53.690;19.948;2023-05-28T08:53:16;2.30;;;1.10;;
41466;SDS011;27205;53.690;19.948;2023-05-28T08:58:27;1.40;;;0.90;;
41466;SDS011;27205;53.690;19.948;2023-05-28T09:03:31;1.00;;;0.90;;
41466;SDS011;27205;53.690;19.948;2023-05-28T09:08:36;1.70;;;1.40;;
41466;SDS011;27205;53.690;19.948;2023-05-28T09:13:40;1.70;;;1.10;;
41466;SDS011;27205;53.690;19.948;2023-05-28T09:18:52;2.20;;;0.90;;
41466;SDS011;27205;53.690;19.948;2023-05-28T09:24:05;3.50;;;1.30;;
41466;SDS011;27205;53.690;19.948;2023-05-28T09:29:12;1.90;;;1.20;;
41466;SDS011;27205;53.690;19.948;2023-05-28T09:34:16;2.50;;;1.00;;
41466;SDS011;27205;53.690;19.948;2023-05-28T09:39:23;3.60;;;1.30;;
41466;SDS011;27205;53.690;19.948;2023-05-28T09:44:29;1.40;;;0.90;;
41466;SDS011;27205;53.690;19.948;2023-05-28T09:49:37;1.60;;;1.10;;
41466;SDS011;27205;53.690;19.948;2023-05-28T09:59:44;2.30;;;1.30;;
41466;SDS011;27205;53.690;19.948;2023-05-28T10:04:52;2.90;;;1.20;;
41466;SDS011;27205;53.690;19.948;2023-05-28T10:10:00;1.50;;;1.00;;
41466;SDS011;27205;53.690;19.948;2023-05-28T10:15:06;0.90;;;0.90;;
41466;SDS011;27205;53.690;19.948;2023-05-28T10:20:10;2.30;;;0.80;;
41466;SDS011;27205;53.690;19.948;2023-05-28T10:25:14;1.30;;;0.70;;
41466;SDS011;27205;53.690;19.948;2023-05-28T10:30:35;1.80;;;1.10;;
41466;SDS011;27205;53.690;19.948;2023-05-28T10:35:51;1.60;;;0.90;;
41466;SDS011;27205;53.690;19.948;2023-05-28T10:41:00;0.90;;;0.80;;
41466;SDS011;27205;53.690;19.948;2023-05-28T10:51:42;2.20;;;1.30;;
41466;SDS011;27205;53.690;19.948;2023-05-28T11:02:25;1.00;;;0.80;;
41466;SDS011;27205;53.690;19.948;2023-05-28T11:12:37;2.30;;;1.10;;
41466;SDS011;27205;53.690;19.948;2023-05-28T11:17:43;1.30;;;1.00;;
41466;SDS011;27205;53.690;19.948;2023-05-28T11:22:48;0.90;;;0.70;;
41466;SDS011;27205;53.690;19.948;2023-05-28T11:27:52;2.40;;;1.20;;
41466;SDS011;27205;53.690;19.948;2023-05-28T11:33:01;2.50;;;1.10;;
41466;SDS011;27205;53.690;19.948;2023-05-28T11:38:05;1.30;;;0.90;;
41466;SDS011;27205;53.690;19.948;2023-05-28T11:43:09;1.80;;;0.90;;
41466;SDS011;27205;53.690;19.948;2023-05-28T11:48:12;3.50;;;1.60;;
41466;SDS011;27205;53.690;19.948;2023-05-28T11:53:16;2.90;;;1.40;;
41466;SDS011;27205;53.690;19.948;2023-05-28T11:58:28;1.20;;;1.00;;
41466;SDS011;27205;53.690;19.948;2023-05-28T12:03:33;1.50;;;1.10;;
41466;SDS011;27205;53.690;19.948;2023-05-28T12:08:39;2.70;;;1.10;;
41466;SDS011;27205;53.690;19.948;2023-05-28T12:13:43;5.80;;;1.50;;
41466;SDS011;27205;53.690;19.948;2023-05-28T12:18:46;1.10;;;1.00;;
41466;SDS011;27205;53.690;19.948;2023-05-28T12:23:50;1.50;;;1.00;;
41466;SDS011;27205;53.690;19.948;2023-05-28T12:28:53;1.60;;;0.90;;
41466;SDS011;27205;53.690;19.948;2023-05-28T12:33:57;6.50;;;1.50;;
41466;SDS011;27205;53.690;19.948;2023-05-28T12:39:01;1.20;;;1.00;;
41466;SDS011;27205;53.690;19.948;2023-05-28T12:44:04;3.10;;;1.10;;
41466;SDS011;27205;53.690;19.948;2023-05-28T12:49:08;2.90;;;1.40;;
41466;SDS011;27205;53.690;19.948;2023-05-28T12:54:12;1.60;;;1.20;;
41466;SDS011;27205;53.690;19.948;2023-05-28T12:59:22;1.60;;;1.00;;
41466;SDS011;27205;53.690;19.948;2023-05-28T13:04:27;4.30;;;0.70;;
41466;SDS011;27205;53.690;19.948;2023-05-28T13:09:30;1.70;;;1.20;;
41466;SDS011;27205;53.690;19.948;2023-05-28T13:14:34;2.10;;;1.20;;
41466;SDS011;27205;53.690;19.948;2023-05-28T13:19:38;1.10;;;0.90;;
41466;SDS011;27205;53.690;19.948;2023-05-28T13:24:42;1.90;;;1.40;;
41466;SDS011;27205;53.690;19.948;2023-05-28T13:29:49;5.60;;;1.40;;
41466;SDS011;27205;53.690;19.948;2023-05-28T13:34:53;3.30;;;1.20;;
41466;SDS011;27205;53.690;19.948;2023-05-28T13:39:56;3.00;;;0.90;;
41466;SDS011;27205;53.690;19.948;2023-05-28T13:45:00;1.20;;;0.90;;
41466;SDS011;27205;53.690;19.948;2023-05-28T13:50:04;47.50;;;9.30;;
41466;SDS011;27205;53.690;19.948;2023-05-28T13:55:08;1.20;;;0.90;;
41466;SDS011;27205;53.690;19.948;2023-05-28T14:00:12;2.30;;;1.10;;
41466;SDS011;27205;53.690;19.948;2023-05-28T14:05:36;0.80;;;0.80;;
41466;SDS011;27205;53.690;19.948;2023-05-28T14:10:40;1.10;;;1.00;;
41466;SDS011;27205;53.690;19.948;2023-05-28T14:15:43;1.00;;;1.00;;
41466;SDS011;27205;53.690;19.948;2023-05-28T14:20:47;3.50;;;1.40;;
41466;SDS011;27205;53.690;19.948;2023-05-28T14:25:51;1.70;;;1.60;;
41466;SDS011;27205;53.690;19.948;2023-05-28T14:30:55;8.20;;;3.60;;
41466;SDS011;27205;53.690;19.948;2023-05-28T14:35:59;4.60;;;4.40;;
41466;SDS011;27205;53.690;19.948;2023-05-28T14:41:17;7.20;;;6.80;;
41466;SDS011;27205;53.690;19.948;2023-05-28T14:46:21;10.60;;;10.10;;
41466;SDS011;27205;53.690;19.948;2023-05-28T14:51:25;14.10;;;13.40;;
41466;SDS011;27205;53.690;19.948;2023-05-28T14:56:29;17.40;;;16.60;;
41466;SDS011;27205;53.690;19.948;2023-05-28T15:01:33;18.90;;;17.90;;
41466;SDS011;27205;53.690;19.948;2023-05-28T15:06:36;25.70;;;20.40;;
41466;SDS011;27205;53.690;19.948;2023-05-28T15:11:40;18.00;;;17.10;;
41466;SDS011;27205;53.690;19.948;2023-05-28T15:16:43;18.10;;;17.40;;
41466;SDS011;27205;53.690;19.948;2023-05-28T15:21:48;17.20;;;16.50;;
41466;SDS011;27205;53.690;19.948;2023-05-28T15:26:52;16.60;;;16.00;;
41466;SDS011;27205;53.690;19.948;2023-05-28T15:31:56;15.10;;;14.50;;
41466;SDS011;27205;53.690;19.948;2023-05-28T15:37:03;15.10;;;14.50;;
41466;SDS011;27205;53.690;19.948;2023-05-28T15:42:07;14.00;;;13.50;;
41466;SDS011;27205;53.690;19.948;2023-05-28T15:47:11;13.20;;;12.70;;
41466;SDS011;27205;53.690;19.948;2023-05-28T15:52:15;11.10;;;10.70;;
41466;SDS011;27205;53.690;19.948;2023-05-28T15:57:19;10.20;;;9.80;;
41466;SDS011;27205;53.690;19.948;2023-05-28T16:02:23;9.40;;;9.00;;
41466;SDS011;27205;53.690;19.948;2023-05-28T16:07:27;8.70;;;8.30;;
41466;SDS011;27205;53.690;19.948;2023-05-28T16:12:31;6.70;;;6.20;;
41466;SDS011;27205;53.690;19.948;2023-05-28T16:17:39;4.90;;;4.70;;
41466;SDS011;27205;53.690;19.948;2023-05-28T16:22:45;4.10;;;3.80;;
41466;SDS011;27205;53.690;19.948;2023-05-28T16:27:49;4.20;;;3.80;;
41466;SDS011;27205;53.690;19.948;2023-05-28T16:32:56;2.80;;;2.70;;
41466;SDS011;27205;53.690;19.948;2023-05-28T16:38:03;2.40;;;2.20;;
41466;SDS011;27205;53.690;19.948;2023-05-28T16:43:09;3.40;;;2.10;;
41466;SDS011;27205;53.690;19.948;2023-05-28T16:48:12;2.00;;;1.80;;
41466;SDS011;27205;53.690;19.948;2023-05-28T16:53:16;1.90;;;1.80;;
41466;SDS011;27205;53.690;19.948;2023-05-28T16:58:20;1.90;;;1.50;;
41466;SDS011;27205;53.690;19.948;2023-05-28T17:03:24;2.00;;;1.80;;
41466;SDS011;27205;53.690;19.948;2023-05-28T17:08:28;1.90;;;1.60;;
41466;SDS011;27205;53.690;19.948;2023-05-28T17:13:33;2.80;;;1.60;;
41466;SDS011;27205;53.690;19.948;2023-05-28T17:18:36;6.30;;;2.10;;
41466;SDS011;27205;53.690;19.948;2023-05-28T17:23:43;1.80;;;1.40;;
41466;SDS011;27205;53.690;19.948;2023-05-28T17:28:48;2.70;;;1.70;;
41466;SDS011;27205;53.690;19.948;2023-05-28T17:33:51;5.20;;;1.80;;
41466;SDS011;27205;53.690;19.948;2023-05-28T17:38:55;4.00;;;2.20;;
41466;SDS011;27205;53.690;19.948;2023-05-28T17:44:02;3.80;;;2.70;;
41466;SDS011;27205;53.690;19.948;2023-05-28T17:49:06;5.70;;;1.90;;
41466;SDS011;27205;53.690;19.948;2023-05-28T17:54:10;7.60;;;1.80;;
41466;SDS011;27205;53.690;19.948;2023-05-28T17:59:16;8.10;;;2.20;;
41466;SDS011;27205;53.690;19.948;2023-05-28T18:04:20;4.80;;;1.90;;
41466;SDS011;27205;53.690;19.948;2023-05-28T18:09:24;3.10;;;1.90;;
41466;SDS011;27205;53.690;19.948;2023-05-28T18:14:28;11.70;;;2.90;;
41466;SDS011;27205;53.690;19.948;2023-05-28T18:19:33;13.70;;;3.80;;
41466;SDS011;27205;53.690;19.948;2023-05-28T18:24:37;4.90;;;2.00;;
41466;SDS011;27205;53.690;19.948;2023-05-28T18:29:41;6.50;;;2.20;;
41466;SDS011;27205;53.690;19.948;2023-05-28T18:34:44;6.30;;;2.50;;
41466;SDS011;27205;53.690;19.948;2023-05-28T18:39:48;4.60;;;2.00;;
41466;SDS011;27205;53.690;19.948;2023-05-28T18:44:56;4.70;;;2.60;;
41466;SDS011;27205;53.690;19.948;2023-05-28T18:50:01;7.30;;;2.60;;
41466;SDS011;27205;53.690;19.948;2023-05-28T18:55:05;7.60;;;3.10;;
41466;SDS011;27205;53.690;19.948;2023-05-28T19:00:09;3.90;;;1.90;;
41466;SDS011;27205;53.690;19.948;2023-05-28T19:05:13;6.50;;;2.00;;
41466;SDS011;27205;53.690;19.948;2023-05-28T19:10:17;7.00;;;1.90;;
41466;SDS011;27205;53.690;19.948;2023-05-28T19:15:21;3.20;;;1.80;;
41466;SDS011;27205;53.690;19.948;2023-05-28T19:20:25;5.50;;;2.20;;
41466;SDS011;27205;53.690;19.948;2023-05-28T19:25:29;2.40;;;1.90;;
41466;SDS011;27205;53.690;19.948;2023-05-28T19:30:33;5.10;;;3.20;;
41466;SDS011;27205;53.690;19.948;2023-05-28T19:40:40;8.20;;;3.90;;
41466;SDS011;27205;53.690;19.948;2023-05-28T19:45:44;5.10;;;3.10;;
41466;SDS011;27205;53.690;19.948;2023-05-28T19:50:49;17.80;;;5.70;;
41466;SDS011;27205;53.690;19.948;2023-05-28T20:00:56;10.10;;;4.10;;
41466;SDS011;27205;53.690;19.948;2023-05-28T20:06:00;7.60;;;3.70;;
41466;SDS011;27205;53.690;19.948;2023-05-28T20:11:03;6.00;;;3.70;;
41466;SDS011;27205;53.690;19.948;2023-05-28T20:16:07;6.00;;;3.70;;
41466;SDS011;27205;53.690;19.948;2023-05-28T20:21:11;4.80;;;3.20;;
41466;SDS011;27205;53.690;19.948;2023-05-28T20:26:15;4.50;;;3.00;;
41466;SDS011;27205;53.690;19.948;2023-05-28T20:31:18;2.80;;;2.60;;
41466;SDS011;27205;53.690;19.948;2023-05-28T20:36:22;2.60;;;2.30;;
41466;SDS011;27205;53.690;19.948;2023-05-28T20:41:26;4.60;;;3.00;;
41466;SDS011;27205;53.690;19.948;2023-05-28T20:46:29;3.70;;;2.60;;
41466;SDS011;27205;53.690;19.948;2023-05-28T20:51:33;2.30;;;2.00;;
41466;SDS011;27205;53.690;19.948;2023-05-28T20:56:38;4.40;;;3.60;;
41466;SDS011;27205;53.690;19.948;2023-05-28T21:01:43;2.80;;;2.10;;
41466;SDS011;27205;53.690;19.948;2023-05-28T21:06:50;3.90;;;2.70;;
41466;SDS011;27205;53.690;19.948;2023-05-28T21:11:53;4.20;;;3.10;;
41466;SDS011;27205;53.690;19.948;2023-05-28T21:16:57;3.10;;;2.40;;
41466;SDS011;27205;53.690;19.948;2023-05-28T21:22:05;8.70;;;3.60;;
41466;SDS011;27205;53.690;19.948;2023-05-28T21:27:09;4.30;;;2.70;;
41466;SDS011;27205;53.690;19.948;2023-05-28T21:32:12;5.40;;;2.70;;
41466;SDS011;27205;53.690;19.948;2023-05-28T21:37:19;5.40;;;3.00;;
41466;SDS011;27205;53.690;19.948;2023-05-28T21:42:22;4.10;;;2.70;;
41466;SDS011;27205;53.690;19.948;2023-05-28T21:47:26;3.10;;;2.70;;
41466;SDS011;27205;53.690;19.948;2023-05-28T21:52:30;3.50;;;3.00;;
41466;SDS011;27205;53.690;19.948;2023-05-28T21:57:35;2.90;;;2.50;;
41466;SDS011;27205;53.690;19.948;2023-05-28T22:02:41;3.30;;;3.00;;
41466;SDS011;27205;53.690;19.948;2023-05-28T22:07:45;4.30;;;2.50;;
41466;SDS011;27205;53.690;19.948;2023-05-28T22:17:54;3.80;;;2.80;;
41466;SDS011;27205;53.690;19.948;2023-05-28T22:22:58;4.50;;;2.90;;
41466;SDS011;27205;53.690;19.948;2023-05-28T22:28:02;4.00;;;2.90;;
41466;SDS011;27205;53.690;19.948;2023-05-28T22:33:05;4.80;;;3.70;;
41466;SDS011;27205;53.690;19.948;2023-05-28T22:38:09;3.20;;;2.40;;
41466;SDS011;27205;53.690;19.948;2023-05-28T22:43:13;6.20;;;3.80;;
41466;SDS011;27205;53.690;19.948;2023-05-28T22:48:17;13.50;;;5.30;;
41466;SDS011;27205;53.690;19.948;2023-05-28T22:53:22;6.10;;;4.30;;
41466;SDS011;27205;53.690;19.948;2023-05-28T22:58:26;4.50;;;2.90;;
41466;SDS011;27205;53.690;19.948;2023-05-28T23:03:29;3.10;;;2.80;;
41466;SDS011;27205;53.690;19.948;2023-05-28T23:13:37;6.40;;;3.10;;
41466;SDS011;27205;53.690;19.948;2023-05-28T23:18:41;4.10;;;3.00;;
41466;SDS011;27205;53.690;19.948;2023-05-28T23:23:45;2.80;;;2.60;;
41466;SDS011;27205;53.690;19.948;2023-05-28T23:28:49;2.80;;;2.60;;
41466;SDS011;27205;53.690;19.948;2023-05-28T23:33:54;2.80;;;2.50;;
41466;SDS011;27205;53.690;19.948;2023-05-28T23:38:57;3.40;;;2.60;;
41466;SDS011;27205;53.690;19.948;2023-05-28T23:44:01;3.00;;;2.70;;
41466;SDS011;27205;53.690;19.948;2023-05-28T23:49:05;3.20;;;2.80;;
41466;SDS011;27205;53.690;19.948;2023-05-28T23:54:11;3.90;;;3.50;;
41466;SDS011;27205;53.690;19.948;2023-05-28T23:59:15;4.60;;;2.80;;
